sensor_id;sensor_type;location;lat;lon;timestamp;P1;durP1;ratioP1;P2;durP2;ratioP2
80101;SDS011;69407;44.966;19.622;2023-12-22T00:01:05;44.15;;;17.48;;
80101;SDS011;69407;44.966;19.622;2023-12-22T00:03:31;54.08;;;18.35;;
80101;SDS011;69407;44.966;19.622;2023-12-22T00:05:56;51.50;;;18.42;;
80101;SDS011;69407;44.966;19.622;2023-12-22T00:08:22;49.10;;;18.30;;
80101;SDS011;69407;44.966;19.622;2023-12-22T00:10:48;41.22;;;18.52;;
80101;SDS011;69407;44.966;19.622;2023-12-22T00:13:14;50.08;;;19.10;;
80101;SDS011;69407;44.966;19.622;2023-12-22T00:15:40;52.30;;;19.80;;
80101;SDS011;69407;44.966;19.622;2023-12-22T00:18:07;51.88;;;18.38;;
80101;SDS011;69407;44.966;19.622;2023-12-22T00:20:33;43.78;;;19.27;;
80101;SDS011;69407;44.966;19.622;2023-12-22T00:22:58;44.58;;;18.05;;
80101;SDS011;69407;44.966;19.622;2023-12-22T00:25:24;42.83;;;17.08;;
80101;SDS011;69407;44.966;19.622;2023-12-22T00:27:49;36.63;;;13.75;;
80101;SDS011;69407;44.966;19.622;2023-12-22T00:30:15;29.33;;;11.82;;
80101;SDS011;69407;44.966;19.622;2023-12-22T00:32:40;31.88;;;13.90;;
80101;SDS011;69407;44.966;19.622;2023-12-22T00:35:06;33.38;;;13.85;;
80101;SDS011;69407;44.966;19.622;2023-12-22T00:37:32;30.77;;;12.18;;
80101;SDS011;69407;44.966;19.622;2023-12-22T00:39:57;36.50;;;15.75;;
80101;SDS011;69407;44.966;19.622;2023-12-22T00:42:23;36.65;;;13.95;;
80101;SDS011;69407;44.966;19.622;2023-12-22T00:44:48;37.55;;;14.93;;
80101;SDS011;69407;44.966;19.622;2023-12-22T00:47:14;30.30;;;13.63;;
80101;SDS011;69407;44.966;19.622;2023-12-22T00:49:39;37.28;;;13.45;;
80101;SDS011;69407;44.966;19.622;2023-12-22T00:52:05;30.10;;;14.15;;
80101;SDS011;69407;44.966;19.622;2023-12-22T00:54:30;37.08;;;15.63;;
80101;SDS011;69407;44.966;19.622;2023-12-22T00:56:56;53.08;;;20.67;;
80101;SDS011;69407;44.966;19.622;2023-12-22T00:59:23;53.90;;;20.63;;
80101;SDS011;69407;44.966;19.622;2023-12-22T01:01:49;53.47;;;19.55;;
80101;SDS011;69407;44.966;19.622;2023-12-22T01:04:14;36.08;;;14.88;;
80101;SDS011;69407;44.966;19.622;2023-12-22T01:06:40;30.98;;;14.05;;
80101;SDS011;69407;44.966;19.622;2023-12-22T01:09:06;35.17;;;13.32;;
80101;SDS011;69407;44.966;19.622;2023-12-22T01:11:31;29.85;;;13.35;;
80101;SDS011;69407;44.966;19.622;2023-12-22T01:13:57;30.63;;;12.32;;
80101;SDS011;69407;44.966;19.622;2023-12-22T01:16:22;29.77;;;12.60;;
80101;SDS011;69407;44.966;19.622;2023-12-22T01:18:49;35.80;;;13.60;;
80101;SDS011;69407;44.966;19.622;2023-12-22T01:21:17;34.80;;;14.05;;
80101;SDS011;69407;44.966;19.622;2023-12-22T01:23:43;33.50;;;13.98;;
80101;SDS011;69407;44.966;19.622;2023-12-22T01:26:08;37.30;;;14.82;;
80101;SDS011;69407;44.966;19.622;2023-12-22T01:28:34;32.38;;;13.50;;
80101;SDS011;69407;44.966;19.622;2023-12-22T01:31:00;30.70;;;12.98;;
80101;SDS011;69407;44.966;19.622;2023-12-22T01:33:26;32.80;;;14.68;;
80101;SDS011;69407;44.966;19.622;2023-12-22T01:35:51;35.42;;;15.20;;
80101;SDS011;69407;44.966;19.622;2023-12-22T01:38:17;39.33;;;14.85;;
80101;SDS011;69407;44.966;19.622;2023-12-22T01:40:42;34.80;;;14.55;;
80101;SDS011;69407;44.966;19.622;2023-12-22T01:43:08;34.08;;;14.93;;
80101;SDS011;69407;44.966;19.622;2023-12-22T01:45:34;36.08;;;15.73;;
80101;SDS011;69407;44.966;19.622;2023-12-22T01:47:59;55.35;;;20.45;;
80101;SDS011;69407;44.966;19.622;2023-12-22T01:50:25;79.05;;;25.35;;
80101;SDS011;69407;44.966;19.622;2023-12-22T01:52:51;74.40;;;27.77;;
80101;SDS011;69407;44.966;19.622;2023-12-22T01:55:16;99.63;;;33.05;;
80101;SDS011;69407;44.966;19.622;2023-12-22T01:57:43;109.90;;;40.40;;
80101;SDS011;69407;44.966;19.622;2023-12-22T02:00:09;100.57;;;38.38;;
80101;SDS011;69407;44.966;19.622;2023-12-22T02:02:36;98.55;;;39.60;;
80101;SDS011;69407;44.966;19.622;2023-12-22T02:05:03;96.20;;;38.78;;
80101;SDS011;69407;44.966;19.622;2023-12-22T02:07:30;80.70;;;35.83;;
80101;SDS011;69407;44.966;19.622;2023-12-22T02:09:56;89.38;;;38.13;;
80101;SDS011;69407;44.966;19.622;2023-12-22T02:12:22;76.00;;;33.65;;
80101;SDS011;69407;44.966;19.622;2023-12-22T02:14:47;70.82;;;31.20;;
80101;SDS011;69407;44.966;19.622;2023-12-22T02:20:10;63.15;;;28.63;;
80101;SDS011;69407;44.966;19.622;2023-12-22T02:22:36;65.35;;;28.55;;
80101;SDS011;69407;44.966;19.622;2023-12-22T02:25:02;55.97;;;26.23;;
80101;SDS011;69407;44.966;19.622;2023-12-22T02:30:03;60.75;;;27.15;;
80101;SDS011;69407;44.966;19.622;2023-12-22T02:32:32;60.65;;;25.02;;
80101;SDS011;69407;44.966;19.622;2023-12-22T02:35:03;54.22;;;23.92;;
80101;SDS011;69407;44.966;19.622;2023-12-22T02:37:31;56.80;;;24.33;;
80101;SDS011;69407;44.966;19.622;2023-12-22T02:39:58;42.83;;;18.85;;
80101;SDS011;69407;44.966;19.622;2023-12-22T02:42:25;36.28;;;15.93;;
80101;SDS011;69407;44.966;19.622;2023-12-22T02:44:55;28.63;;;13.60;;
80101;SDS011;69407;44.966;19.622;2023-12-22T02:47:22;31.45;;;14.30;;
80101;SDS011;69407;44.966;19.622;2023-12-22T02:49:48;32.00;;;15.23;;
80101;SDS011;69407;44.966;19.622;2023-12-22T02:52:13;28.52;;;13.73;;
80101;SDS011;69407;44.966;19.622;2023-12-22T02:54:39;23.77;;;11.68;;
80101;SDS011;69407;44.966;19.622;2023-12-22T02:57:06;22.58;;;11.60;;
80101;SDS011;69407;44.966;19.622;2023-12-22T02:59:32;23.70;;;12.05;;
80101;SDS011;69407;44.966;19.622;2023-12-22T03:01:58;25.58;;;11.63;;
80101;SDS011;69407;44.966;19.622;2023-12-22T03:04:23;26.10;;;10.45;;
80101;SDS011;69407;44.966;19.622;2023-12-22T03:06:49;24.45;;;11.23;;
80101;SDS011;69407;44.966;19.622;2023-12-22T03:09:14;24.10;;;10.60;;
80101;SDS011;69407;44.966;19.622;2023-12-22T03:11:39;18.02;;;8.85;;
80101;SDS011;69407;44.966;19.622;2023-12-22T03:14:05;19.48;;;8.95;;
80101;SDS011;69407;44.966;19.622;2023-12-22T03:16:30;24.90;;;7.85;;
80101;SDS011;69407;44.966;19.622;2023-12-22T03:18:56;18.17;;;8.43;;
80101;SDS011;69407;44.966;19.622;2023-12-22T03:21:21;16.02;;;8.38;;
80101;SDS011;69407;44.966;19.622;2023-12-22T03:23:47;18.10;;;8.32;;
80101;SDS011;69407;44.966;19.622;2023-12-22T03:26:12;13.68;;;7.65;;
80101;SDS011;69407;44.966;19.622;2023-12-22T03:28:38;17.48;;;7.13;;
80101;SDS011;69407;44.966;19.622;2023-12-22T03:31:03;12.85;;;7.15;;
80101;SDS011;69407;44.966;19.622;2023-12-22T03:33:29;17.50;;;7.78;;
80101;SDS011;69407;44.966;19.622;2023-12-22T03:35:54;18.45;;;8.07;;
80101;SDS011;69407;44.966;19.622;2023-12-22T03:38:20;16.13;;;7.22;;
80101;SDS011;69407;44.966;19.622;2023-12-22T03:40:45;14.90;;;6.30;;
80101;SDS011;69407;44.966;19.622;2023-12-22T03:43:11;13.05;;;6.78;;
80101;SDS011;69407;44.966;19.622;2023-12-22T03:45:36;14.70;;;6.60;;
80101;SDS011;69407;44.966;19.622;2023-12-22T03:48:02;13.38;;;6.30;;
80101;SDS011;69407;44.966;19.622;2023-12-22T03:50:27;11.60;;;5.25;;
80101;SDS011;69407;44.966;19.622;2023-12-22T03:52:53;10.43;;;5.05;;
80101;SDS011;69407;44.966;19.622;2023-12-22T03:55:18;14.63;;;7.18;;
80101;SDS011;69407;44.966;19.622;2023-12-22T03:57:44;13.32;;;6.78;;
80101;SDS011;69407;44.966;19.622;2023-12-22T04:00:09;10.43;;;5.22;;
80101;SDS011;69407;44.966;19.622;2023-12-22T04:02:35;11.55;;;5.53;;
80101;SDS011;69407;44.966;19.622;2023-12-22T04:05:00;17.23;;;9.38;;
80101;SDS011;69407;44.966;19.622;2023-12-22T04:07:26;17.27;;;10.45;;
80101;SDS011;69407;44.966;19.622;2023-12-22T04:09:51;18.02;;;9.77;;
80101;SDS011;69407;44.966;19.622;2023-12-22T04:12:17;15.02;;;7.88;;
80101;SDS011;69407;44.966;19.622;2023-12-22T04:14:42;13.85;;;7.15;;
80101;SDS011;69407;44.966;19.622;2023-12-22T04:17:08;17.65;;;8.43;;
80101;SDS011;69407;44.966;19.622;2023-12-22T04:19:33;15.00;;;9.07;;
80101;SDS011;69407;44.966;19.622;2023-12-22T04:21:59;14.60;;;8.00;;
80101;SDS011;69407;44.966;19.622;2023-12-22T04:24:24;13.15;;;7.55;;
80101;SDS011;69407;44.966;19.622;2023-12-22T04:26:49;11.82;;;7.38;;
80101;SDS011;69407;44.966;19.622;2023-12-22T04:29:15;18.48;;;10.13;;
80101;SDS011;69407;44.966;19.622;2023-12-22T04:31:40;38.47;;;17.92;;
80101;SDS011;69407;44.966;19.622;2023-12-22T04:34:06;25.40;;;12.40;;
80101;SDS011;69407;44.966;19.622;2023-12-22T04:36:31;15.13;;;7.05;;
80101;SDS011;69407;44.966;19.622;2023-12-22T04:38:57;17.13;;;7.85;;
80101;SDS011;69407;44.966;19.622;2023-12-22T04:41:22;13.30;;;7.75;;
80101;SDS011;69407;44.966;19.622;2023-12-22T04:43:48;18.40;;;9.55;;
80101;SDS011;69407;44.966;19.622;2023-12-22T04:46:14;23.77;;;11.50;;
80101;SDS011;69407;44.966;19.622;2023-12-22T04:48:39;22.08;;;11.13;;
80101;SDS011;69407;44.966;19.622;2023-12-22T04:51:04;26.70;;;13.00;;
80101;SDS011;69407;44.966;19.622;2023-12-22T04:53:30;27.27;;;11.80;;
80101;SDS011;69407;44.966;19.622;2023-12-22T04:55:55;21.65;;;12.00;;
80101;SDS011;69407;44.966;19.622;2023-12-22T04:58:21;20.55;;;11.95;;
80101;SDS011;69407;44.966;19.622;2023-12-22T05:00:47;17.90;;;9.73;;
80101;SDS011;69407;44.966;19.622;2023-12-22T05:03:13;18.63;;;9.23;;
80101;SDS011;69407;44.966;19.622;2023-12-22T05:05:38;14.23;;;8.65;;
80101;SDS011;69407;44.966;19.622;2023-12-22T05:08:04;17.48;;;8.75;;
80101;SDS011;69407;44.966;19.622;2023-12-22T05:10:29;17.15;;;10.43;;
80101;SDS011;69407;44.966;19.622;2023-12-22T05:12:55;24.63;;;11.00;;
80101;SDS011;69407;44.966;19.622;2023-12-22T05:15:20;31.95;;;15.07;;
80101;SDS011;69407;44.966;19.622;2023-12-22T05:17:46;30.30;;;14.52;;
80101;SDS011;69407;44.966;19.622;2023-12-22T05:20:11;89.05;;;26.60;;
80101;SDS011;69407;44.966;19.622;2023-12-22T05:22:37;89.57;;;29.13;;
80101;SDS011;69407;44.966;19.622;2023-12-22T05:25:02;80.03;;;28.75;;
80101;SDS011;69407;44.966;19.622;2023-12-22T05:27:28;69.03;;;26.70;;
80101;SDS011;69407;44.966;19.622;2023-12-22T05:29:53;61.83;;;24.42;;
80101;SDS011;69407;44.966;19.622;2023-12-22T05:32:19;49.08;;;21.35;;
80101;SDS011;69407;44.966;19.622;2023-12-22T05:34:44;30.90;;;14.75;;
80101;SDS011;69407;44.966;19.622;2023-12-22T05:37:10;28.65;;;13.00;;
80101;SDS011;69407;44.966;19.622;2023-12-22T05:39:35;23.23;;;11.07;;
80101;SDS011;69407;44.966;19.622;2023-12-22T05:42:01;19.92;;;10.10;;
80101;SDS011;69407;44.966;19.622;2023-12-22T05:44:26;18.08;;;10.60;;
80101;SDS011;69407;44.966;19.622;2023-12-22T05:46:55;21.17;;;10.55;;
80101;SDS011;69407;44.966;19.622;2023-12-22T05:49:21;16.63;;;8.85;;
80101;SDS011;69407;44.966;19.622;2023-12-22T05:51:48;25.42;;;12.50;;
80101;SDS011;69407;44.966;19.622;2023-12-22T05:54:15;31.38;;;14.63;;
80101;SDS011;69407;44.966;19.622;2023-12-22T05:56:41;57.10;;;24.77;;
80101;SDS011;69407;44.966;19.622;2023-12-22T05:59:07;37.22;;;17.52;;
80101;SDS011;69407;44.966;19.622;2023-12-22T06:01:32;44.03;;;18.13;;
80101;SDS011;69407;44.966;19.622;2023-12-22T06:03:58;59.65;;;23.52;;
80101;SDS011;69407;44.966;19.622;2023-12-22T06:06:23;41.75;;;19.70;;
80101;SDS011;69407;44.966;19.622;2023-12-22T06:08:49;39.38;;;20.70;;
80101;SDS011;69407;44.966;19.622;2023-12-22T06:11:15;36.85;;;17.50;;
80101;SDS011;69407;44.966;19.622;2023-12-22T06:13:40;37.08;;;17.30;;
80101;SDS011;69407;44.966;19.622;2023-12-22T06:16:06;30.77;;;13.98;;
80101;SDS011;69407;44.966;19.622;2023-12-22T06:18:35;44.72;;;18.85;;
80101;SDS011;69407;44.966;19.622;2023-12-22T06:21:00;29.48;;;14.65;;
80101;SDS011;69407;44.966;19.622;2023-12-22T06:23:26;23.35;;;11.82;;
80101;SDS011;69407;44.966;19.622;2023-12-22T06:25:51;25.05;;;12.52;;
80101;SDS011;69407;44.966;19.622;2023-12-22T06:28:17;39.40;;;16.73;;
80101;SDS011;69407;44.966;19.622;2023-12-22T06:30:42;28.58;;;14.68;;
80101;SDS011;69407;44.966;19.622;2023-12-22T06:33:09;34.97;;;16.25;;
80101;SDS011;69407;44.966;19.622;2023-12-22T06:35:35;23.88;;;12.63;;
80101;SDS011;69407;44.966;19.622;2023-12-22T06:38:00;15.43;;;8.23;;
80101;SDS011;69407;44.966;19.622;2023-12-22T06:40:28;15.20;;;7.97;;
80101;SDS011;69407;44.966;19.622;2023-12-22T06:42:54;13.52;;;8.07;;
80101;SDS011;69407;44.966;19.622;2023-12-22T06:45:19;17.23;;;9.20;;
80101;SDS011;69407;44.966;19.622;2023-12-22T06:47:45;21.55;;;11.15;;
80101;SDS011;69407;44.966;19.622;2023-12-22T06:50:11;20.55;;;11.52;;
80101;SDS011;69407;44.966;19.622;2023-12-22T06:52:36;25.08;;;11.38;;
80101;SDS011;69407;44.966;19.622;2023-12-22T06:55:02;23.65;;;11.15;;
80101;SDS011;69407;44.966;19.622;2023-12-22T06:57:27;16.75;;;8.07;;
80101;SDS011;69407;44.966;19.622;2023-12-22T06:59:53;16.90;;;8.80;;
80101;SDS011;69407;44.966;19.622;2023-12-22T07:02:18;17.48;;;8.90;;
80101;SDS011;69407;44.966;19.622;2023-12-22T07:07:50;43.80;;;22.50;;
80101;SDS011;69407;44.966;19.622;2023-12-22T07:10:18;56.78;;;29.20;;
80101;SDS011;69407;44.966;19.622;2023-12-22T07:12:44;42.28;;;22.15;;
80101;SDS011;69407;44.966;19.622;2023-12-22T07:15:09;38.47;;;20.25;;
80101;SDS011;69407;44.966;19.622;2023-12-22T07:17:35;47.85;;;25.85;;
80101;SDS011;69407;44.966;19.622;2023-12-22T07:20:01;59.05;;;32.92;;
80101;SDS011;69407;44.966;19.622;2023-12-22T07:22:28;35.55;;;19.00;;
80101;SDS011;69407;44.966;19.622;2023-12-22T07:24:54;27.23;;;15.52;;
80101;SDS011;69407;44.966;19.622;2023-12-22T07:27:20;32.70;;;17.02;;
80101;SDS011;69407;44.966;19.622;2023-12-22T07:32:30;17.20;;;8.85;;
80101;SDS011;69407;44.966;19.622;2023-12-22T07:34:56;13.60;;;8.07;;
80101;SDS011;69407;44.966;19.622;2023-12-22T07:37:21;15.27;;;8.10;;
80101;SDS011;69407;44.966;19.622;2023-12-22T07:39:47;14.48;;;7.22;;
80101;SDS011;69407;44.966;19.622;2023-12-22T07:42:12;26.30;;;13.13;;
80101;SDS011;69407;44.966;19.622;2023-12-22T07:44:38;18.85;;;10.43;;
80101;SDS011;69407;44.966;19.622;2023-12-22T07:47:03;15.13;;;9.20;;
80101;SDS011;69407;44.966;19.622;2023-12-22T07:49:29;43.35;;;22.25;;
80101;SDS011;69407;44.966;19.622;2023-12-22T07:51:55;15.63;;;8.68;;
80101;SDS011;69407;44.966;19.622;2023-12-22T07:54:20;14.63;;;7.60;;
80101;SDS011;69407;44.966;19.622;2023-12-22T07:56:46;14.15;;;7.68;;
80101;SDS011;69407;44.966;19.622;2023-12-22T07:59:11;12.57;;;7.57;;
80101;SDS011;69407;44.966;19.622;2023-12-22T08:01:37;17.88;;;9.32;;
80101;SDS011;69407;44.966;19.622;2023-12-22T08:04:02;16.35;;;9.23;;
80101;SDS011;69407;44.966;19.622;2023-12-22T08:09:14;29.50;;;15.50;;
80101;SDS011;69407;44.966;19.622;2023-12-22T08:11:39;20.30;;;11.18;;
80101;SDS011;69407;44.966;19.622;2023-12-22T08:14:04;17.50;;;9.63;;
80101;SDS011;69407;44.966;19.622;2023-12-22T08:16:30;28.42;;;15.30;;
80101;SDS011;69407;44.966;19.622;2023-12-22T08:18:57;15.80;;;8.27;;
80101;SDS011;69407;44.966;19.622;2023-12-22T08:21:23;15.10;;;7.68;;
80101;SDS011;69407;44.966;19.622;2023-12-22T08:23:48;17.85;;;8.73;;
80101;SDS011;69407;44.966;19.622;2023-12-22T08:26:14;12.05;;;7.07;;
80101;SDS011;69407;44.966;19.622;2023-12-22T08:28:42;14.90;;;9.57;;
80101;SDS011;69407;44.966;19.622;2023-12-22T08:31:07;21.63;;;13.45;;
80101;SDS011;69407;44.966;19.622;2023-12-22T08:33:33;37.15;;;19.92;;
80101;SDS011;69407;44.966;19.622;2023-12-22T08:35:58;26.75;;;13.48;;
80101;SDS011;69407;44.966;19.622;2023-12-22T08:38:24;43.13;;;18.60;;
80101;SDS011;69407;44.966;19.622;2023-12-22T08:40:49;49.03;;;23.08;;
80101;SDS011;69407;44.966;19.622;2023-12-22T08:43:15;29.90;;;14.70;;
80101;SDS011;69407;44.966;19.622;2023-12-22T08:45:40;16.98;;;9.63;;
80101;SDS011;69407;44.966;19.622;2023-12-22T08:48:06;26.40;;;14.40;;
80101;SDS011;69407;44.966;19.622;2023-12-22T08:50:33;32.22;;;15.60;;
80101;SDS011;69407;44.966;19.622;2023-12-22T08:52:59;35.80;;;17.38;;
80101;SDS011;69407;44.966;19.622;2023-12-22T08:55:25;17.10;;;9.65;;
80101;SDS011;69407;44.966;19.622;2023-12-22T08:57:50;15.15;;;8.88;;
80101;SDS011;69407;44.966;19.622;2023-12-22T09:00:16;17.02;;;8.77;;
80101;SDS011;69407;44.966;19.622;2023-12-22T09:02:41;13.85;;;6.80;;
80101;SDS011;69407;44.966;19.622;2023-12-22T09:05:07;13.23;;;7.57;;
80101;SDS011;69407;44.966;19.622;2023-12-22T09:07:32;15.68;;;8.18;;
80101;SDS011;69407;44.966;19.622;2023-12-22T09:09:58;25.52;;;11.05;;
80101;SDS011;69407;44.966;19.622;2023-12-22T09:12:23;21.90;;;10.00;;
80101;SDS011;69407;44.966;19.622;2023-12-22T09:14:49;18.23;;;8.88;;
80101;SDS011;69407;44.966;19.622;2023-12-22T09:17:15;12.88;;;7.22;;
80101;SDS011;69407;44.966;19.622;2023-12-22T09:19:41;14.23;;;8.13;;
80101;SDS011;69407;44.966;19.622;2023-12-22T09:22:08;26.42;;;11.90;;
80101;SDS011;69407;44.966;19.622;2023-12-22T09:24:33;35.80;;;14.23;;
80101;SDS011;69407;44.966;19.622;2023-12-22T09:26:59;51.75;;;19.80;;
80101;SDS011;69407;44.966;19.622;2023-12-22T09:29:31;49.13;;;17.67;;
80101;SDS011;69407;44.966;19.622;2023-12-22T09:32:00;41.67;;;17.17;;
80101;SDS011;69407;44.966;19.622;2023-12-22T09:34:26;49.92;;;19.65;;
80101;SDS011;69407;44.966;19.622;2023-12-22T09:39:20;35.33;;;16.30;;
80101;SDS011;69407;44.966;19.622;2023-12-22T09:41:47;18.67;;;10.43;;
80101;SDS011;69407;44.966;19.622;2023-12-22T09:46:43;27.17;;;13.55;;
80101;SDS011;69407;44.966;19.622;2023-12-22T09:49:08;21.77;;;12.55;;
80101;SDS011;69407;44.966;19.622;2023-12-22T09:51:34;26.23;;;13.13;;
80101;SDS011;69407;44.966;19.622;2023-12-22T09:54:04;25.50;;;14.80;;
80101;SDS011;69407;44.966;19.622;2023-12-22T09:56:30;29.90;;;17.10;;
80101;SDS011;69407;44.966;19.622;2023-12-22T09:58:56;21.70;;;11.52;;
80101;SDS011;69407;44.966;19.622;2023-12-22T10:01:22;20.40;;;11.00;;
80101;SDS011;69407;44.966;19.622;2023-12-22T10:03:49;15.73;;;7.60;;
80101;SDS011;69407;44.966;19.622;2023-12-22T10:06:14;13.02;;;7.75;;
80101;SDS011;69407;44.966;19.622;2023-12-22T10:08:42;12.52;;;7.72;;
80101;SDS011;69407;44.966;19.622;2023-12-22T10:11:10;14.30;;;8.75;;
80101;SDS011;69407;44.966;19.622;2023-12-22T10:13:36;18.92;;;9.93;;
80101;SDS011;69407;44.966;19.622;2023-12-22T10:16:05;11.68;;;6.63;;
80101;SDS011;69407;44.966;19.622;2023-12-22T10:18:32;10.48;;;6.25;;
80101;SDS011;69407;44.966;19.622;2023-12-22T10:20:58;12.15;;;6.72;;
80101;SDS011;69407;44.966;19.622;2023-12-22T10:23:27;12.98;;;6.85;;
80101;SDS011;69407;44.966;19.622;2023-12-22T10:25:52;12.63;;;6.78;;
80101;SDS011;69407;44.966;19.622;2023-12-22T10:28:20;15.75;;;7.70;;
80101;SDS011;69407;44.966;19.622;2023-12-22T10:30:49;11.45;;;6.78;;
80101;SDS011;69407;44.966;19.622;2023-12-22T10:33:15;12.05;;;7.28;;
80101;SDS011;69407;44.966;19.622;2023-12-22T10:35:41;29.30;;;15.70;;
80101;SDS011;69407;44.966;19.622;2023-12-22T10:38:07;31.58;;;18.48;;
80101;SDS011;69407;44.966;19.622;2023-12-22T10:40:33;26.50;;;14.38;;
80101;SDS011;69407;44.966;19.622;2023-12-22T10:42:59;20.75;;;11.88;;
80101;SDS011;69407;44.966;19.622;2023-12-22T10:45:25;19.65;;;10.32;;
80101;SDS011;69407;44.966;19.622;2023-12-22T10:47:51;15.70;;;9.38;;
80101;SDS011;69407;44.966;19.622;2023-12-22T10:50:18;22.15;;;11.55;;
80101;SDS011;69407;44.966;19.622;2023-12-22T10:52:51;15.82;;;9.25;;
80101;SDS011;69407;44.966;19.622;2023-12-22T10:55:17;17.58;;;9.80;;
80101;SDS011;69407;44.966;19.622;2023-12-22T10:57:44;13.43;;;8.23;;
80101;SDS011;69407;44.966;19.622;2023-12-22T11:00:11;19.25;;;8.35;;
80101;SDS011;69407;44.966;19.622;2023-12-22T11:02:42;14.65;;;9.10;;
80101;SDS011;69407;44.966;19.622;2023-12-22T11:05:09;15.48;;;7.63;;
80101;SDS011;69407;44.966;19.622;2023-12-22T11:07:35;13.63;;;7.25;;
80101;SDS011;69407;44.966;19.622;2023-12-22T11:10:03;11.98;;;6.97;;
80101;SDS011;69407;44.966;19.622;2023-12-22T11:12:33;14.60;;;6.28;;
80101;SDS011;69407;44.966;19.622;2023-12-22T11:15:00;10.13;;;6.05;;
80101;SDS011;69407;44.966;19.622;2023-12-22T11:17:28;11.27;;;6.15;;
80101;SDS011;69407;44.966;19.622;2023-12-22T11:19:55;12.77;;;6.15;;
80101;SDS011;69407;44.966;19.622;2023-12-22T11:22:22;8.80;;;4.80;;
80101;SDS011;69407;44.966;19.622;2023-12-22T11:24:49;11.70;;;6.55;;
80101;SDS011;69407;44.966;19.622;2023-12-22T11:27:18;11.77;;;6.05;;
80101;SDS011;69407;44.966;19.622;2023-12-22T11:29:47;15.57;;;7.75;;
80101;SDS011;69407;44.966;19.622;2023-12-22T11:32:15;13.60;;;7.30;;
80101;SDS011;69407;44.966;19.622;2023-12-22T11:34:41;11.80;;;6.53;;
80101;SDS011;69407;44.966;19.622;2023-12-22T11:37:09;10.73;;;6.28;;
80101;SDS011;69407;44.966;19.622;2023-12-22T11:39:36;10.77;;;6.13;;
80101;SDS011;69407;44.966;19.622;2023-12-22T11:42:03;14.70;;;8.13;;
80101;SDS011;69407;44.966;19.622;2023-12-22T11:44:31;13.23;;;7.40;;
80101;SDS011;69407;44.966;19.622;2023-12-22T11:47:17;16.15;;;8.18;;
80101;SDS011;69407;44.966;19.622;2023-12-22T11:49:47;15.55;;;7.47;;
80101;SDS011;69407;44.966;19.622;2023-12-22T11:52:18;16.42;;;8.60;;
80101;SDS011;69407;44.966;19.622;2023-12-22T11:54:51;14.73;;;7.18;;
80101;SDS011;69407;44.966;19.622;2023-12-22T11:57:52;13.93;;;7.65;;
80101;SDS011;69407;44.966;19.622;2023-12-22T12:00:37;8.93;;;4.97;;
80101;SDS011;69407;44.966;19.622;2023-12-22T12:03:05;11.43;;;6.07;;
80101;SDS011;69407;44.966;19.622;2023-12-22T12:05:32;8.50;;;5.00;;
80101;SDS011;69407;44.966;19.622;2023-12-22T12:08:05;9.98;;;5.60;;
80101;SDS011;69407;44.966;19.622;2023-12-22T12:13:04;10.52;;;5.78;;
80101;SDS011;69407;44.966;19.622;2023-12-22T12:15:33;7.72;;;4.63;;
80101;SDS011;69407;44.966;19.622;2023-12-22T12:18:00;6.50;;;3.55;;
80101;SDS011;69407;44.966;19.622;2023-12-22T12:20:26;4.75;;;3.30;;
80101;SDS011;69407;44.966;19.622;2023-12-22T12:22:53;13.13;;;7.38;;
80101;SDS011;69407;44.966;19.622;2023-12-22T12:25:21;16.35;;;8.85;;
80101;SDS011;69407;44.966;19.622;2023-12-22T12:27:49;9.88;;;5.35;;
80101;SDS011;69407;44.966;19.622;2023-12-22T12:30:25;8.60;;;4.70;;
80101;SDS011;69407;44.966;19.622;2023-12-22T12:32:51;6.78;;;3.42;;
80101;SDS011;69407;44.966;19.622;2023-12-22T12:35:18;14.50;;;6.65;;
80101;SDS011;69407;44.966;19.622;2023-12-22T12:37:44;8.45;;;3.78;;
80101;SDS011;69407;44.966;19.622;2023-12-22T12:40:11;9.18;;;4.07;;
80101;SDS011;69407;44.966;19.622;2023-12-22T12:42:37;24.83;;;9.95;;
80101;SDS011;69407;44.966;19.622;2023-12-22T12:45:07;18.85;;;9.75;;
80101;SDS011;69407;44.966;19.622;2023-12-22T12:47:33;34.45;;;15.30;;
80101;SDS011;69407;44.966;19.622;2023-12-22T12:49:59;22.95;;;10.88;;
80101;SDS011;69407;44.966;19.622;2023-12-22T12:52:25;9.55;;;5.15;;
80101;SDS011;69407;44.966;19.622;2023-12-22T12:54:51;15.82;;;6.65;;
80101;SDS011;69407;44.966;19.622;2023-12-22T12:57:17;5.13;;;2.50;;
80101;SDS011;69407;44.966;19.622;2023-12-22T12:59:49;17.70;;;7.80;;
80101;SDS011;69407;44.966;19.622;2023-12-22T13:02:16;9.68;;;4.55;;
80101;SDS011;69407;44.966;19.622;2023-12-22T13:04:42;8.70;;;3.00;;
80101;SDS011;69407;44.966;19.622;2023-12-22T13:07:08;9.95;;;4.20;;
80101;SDS011;69407;44.966;19.622;2023-12-22T13:09:38;7.80;;;2.95;;
80101;SDS011;69407;44.966;19.622;2023-12-22T13:12:07;9.63;;;4.72;;
80101;SDS011;69407;44.966;19.622;2023-12-22T13:14:33;9.43;;;3.67;;
80101;SDS011;69407;44.966;19.622;2023-12-22T13:16:59;7.32;;;3.15;;
80101;SDS011;69407;44.966;19.622;2023-12-22T13:19:25;5.45;;;1.70;;
80101;SDS011;69407;44.966;19.622;2023-12-22T13:21:54;4.45;;;2.05;;
80101;SDS011;69407;44.966;19.622;2023-12-22T13:24:20;6.80;;;2.63;;
80101;SDS011;69407;44.966;19.622;2023-12-22T13:26:46;8.00;;;1.83;;
80101;SDS011;69407;44.966;19.622;2023-12-22T13:29:12;5.35;;;1.73;;
80101;SDS011;69407;44.966;19.622;2023-12-22T13:31:39;6.38;;;1.95;;
80101;SDS011;69407;44.966;19.622;2023-12-22T13:34:09;12.35;;;4.15;;
80101;SDS011;69407;44.966;19.622;2023-12-22T13:36:35;7.03;;;2.42;;
80101;SDS011;69407;44.966;19.622;2023-12-22T13:39:07;6.43;;;3.05;;
80101;SDS011;69407;44.966;19.622;2023-12-22T13:41:40;4.93;;;1.75;;
80101;SDS011;69407;44.966;19.622;2023-12-22T13:44:10;4.80;;;1.48;;
80101;SDS011;69407;44.966;19.622;2023-12-22T13:46:36;9.38;;;3.30;;
80101;SDS011;69407;44.966;19.622;2023-12-22T13:49:02;5.95;;;2.22;;
80101;SDS011;69407;44.966;19.622;2023-12-22T13:51:41;4.50;;;1.70;;
80101;SDS011;69407;44.966;19.622;2023-12-22T13:54:08;6.32;;;2.13;;
80101;SDS011;69407;44.966;19.622;2023-12-22T13:56:34;5.40;;;1.50;;
80101;SDS011;69407;44.966;19.622;2023-12-22T13:59:01;4.68;;;2.13;;
80101;SDS011;69407;44.966;19.622;2023-12-22T14:01:28;7.97;;;2.55;;
80101;SDS011;69407;44.966;19.622;2023-12-22T14:03:53;5.15;;;1.85;;
80101;SDS011;69407;44.966;19.622;2023-12-22T14:06:20;13.00;;;4.68;;
80101;SDS011;69407;44.966;19.622;2023-12-22T14:08:45;6.38;;;2.47;;
80101;SDS011;69407;44.966;19.622;2023-12-22T14:11:12;20.33;;;9.73;;
80101;SDS011;69407;44.966;19.622;2023-12-22T14:13:38;21.77;;;9.80;;
80101;SDS011;69407;44.966;19.622;2023-12-22T14:16:06;13.13;;;5.50;;
80101;SDS011;69407;44.966;19.622;2023-12-22T14:18:32;11.45;;;5.20;;
80101;SDS011;69407;44.966;19.622;2023-12-22T14:20:58;16.55;;;7.40;;
80101;SDS011;69407;44.966;19.622;2023-12-22T14:23:24;23.45;;;9.35;;
80101;SDS011;69407;44.966;19.622;2023-12-22T14:25:50;22.27;;;8.27;;
80101;SDS011;69407;44.966;19.622;2023-12-22T14:28:16;23.27;;;8.82;;
80101;SDS011;69407;44.966;19.622;2023-12-22T14:30:41;14.65;;;5.85;;
80101;SDS011;69407;44.966;19.622;2023-12-22T14:33:07;22.60;;;8.23;;